sensor_id;sensor_type;location;lat;lon;timestamp;P1;durP1;ratioP1;P2;durP2;ratioP2
74650;SDS011;63169;46.042;14.592;2023-04-24T00:01:14;5.88;;;5.30;;
74650;SDS011;63169;46.042;14.592;2023-04-24T00:03:40;5.18;;;4.18;;
74650;SDS011;63169;46.042;14.592;2023-04-24T00:06:06;6.35;;;4.72;;
74650;SDS011;63169;46.042;14.592;2023-04-24T00:08:33;6.28;;;5.68;;
74650;SDS011;63169;46.042;14.592;2023-04-24T00:10:59;6.05;;;5.35;;
74650;SDS011;63169;46.042;14.592;2023-04-24T00:13:25;4.60;;;2.58;;
74650;SDS011;63169;46.042;14.592;2023-04-24T00:15:50;5.50;;;4.45;;
74650;SDS011;63169;46.042;14.592;2023-04-24T00:18:15;6.22;;;5.57;;
74650;SDS011;63169;46.042;14.592;2023-04-24T00:20:41;6.55;;;3.78;;
74650;SDS011;63169;46.042;14.592;2023-04-24T00:23:08;5.47;;;4.32;;
74650;SDS011;63169;46.042;14.592;2023-04-24T00:25:33;6.07;;;5.32;;
74650;SDS011;63169;46.042;14.592;2023-04-24T00:27:59;5.88;;;5.32;;
74650;SDS011;63169;46.042;14.592;2023-04-24T00:30:24;6.43;;;5.63;;
74650;SDS011;63169;46.042;14.592;2023-04-24T00:32:50;6.53;;;5.40;;
74650;SDS011;63169;46.042;14.592;2023-04-24T00:35:15;5.25;;;4.05;;
74650;SDS011;63169;46.042;14.592;2023-04-24T00:37:41;6.43;;;5.45;;
74650;SDS011;63169;46.042;14.592;2023-04-24T00:40:07;7.20;;;6.45;;
74650;SDS011;63169;46.042;14.592;2023-04-24T00:42:32;6.05;;;5.45;;
74650;SDS011;63169;46.042;14.592;2023-04-24T00:44:58;6.97;;;6.13;;
74650;SDS011;63169;46.042;14.592;2023-04-24T00:47:24;5.80;;;2.75;;
74650;SDS011;63169;46.042;14.592;2023-04-24T00:49:50;6.53;;;5.93;;
74650;SDS011;63169;46.042;14.592;2023-04-24T00:52:15;7.38;;;6.68;;
74650;SDS011;63169;46.042;14.592;2023-04-24T00:54:42;6.80;;;6.10;;
74650;SDS011;63169;46.042;14.592;2023-04-24T00:57:09;6.72;;;5.90;;
74650;SDS011;63169;46.042;14.592;2023-04-24T00:59:35;7.43;;;5.13;;
74650;SDS011;63169;46.042;14.592;2023-04-24T01:02:01;4.82;;;3.42;;
74650;SDS011;63169;46.042;14.592;2023-04-24T01:04:26;6.82;;;4.60;;
74650;SDS011;63169;46.042;14.592;2023-04-24T01:06:52;6.75;;;6.05;;
74650;SDS011;63169;46.042;14.592;2023-04-24T01:09:18;8.98;;;6.30;;
74650;SDS011;63169;46.042;14.592;2023-04-24T01:11:43;7.47;;;6.28;;
74650;SDS011;63169;46.042;14.592;2023-04-24T01:14:09;6.22;;;5.57;;
74650;SDS011;63169;46.042;14.592;2023-04-24T01:16:35;6.50;;;5.45;;
74650;SDS011;63169;46.042;14.592;2023-04-24T01:19:03;6.43;;;4.70;;
74650;SDS011;63169;46.042;14.592;2023-04-24T01:23:55;5.50;;;3.20;;
74650;SDS011;63169;46.042;14.592;2023-04-24T01:26:21;6.40;;;5.82;;
74650;SDS011;63169;46.042;14.592;2023-04-24T01:28:46;7.55;;;6.95;;
74650;SDS011;63169;46.042;14.592;2023-04-24T01:31:13;6.95;;;5.53;;
74650;SDS011;63169;46.042;14.592;2023-04-24T01:33:39;8.27;;;5.57;;
74650;SDS011;63169;46.042;14.592;2023-04-24T01:36:05;7.57;;;6.28;;
74650;SDS011;63169;46.042;14.592;2023-04-24T01:38:31;5.70;;;3.50;;
74650;SDS011;63169;46.042;14.592;2023-04-24T01:40:56;7.05;;;6.35;;
74650;SDS011;63169;46.042;14.592;2023-04-24T01:43:22;7.00;;;6.28;;
74650;SDS011;63169;46.042;14.592;2023-04-24T01:45:47;7.95;;;3.97;;
74650;SDS011;63169;46.042;14.592;2023-04-24T01:48:12;7.72;;;7.03;;
74650;SDS011;63169;46.042;14.592;2023-04-24T01:50:38;7.13;;;3.80;;
74650;SDS011;63169;46.042;14.592;2023-04-24T01:53:03;5.80;;;3.25;;
74650;SDS011;63169;46.042;14.592;2023-04-24T01:55:29;7.93;;;6.60;;
74650;SDS011;63169;46.042;14.592;2023-04-24T01:57:55;7.57;;;6.35;;
74650;SDS011;63169;46.042;14.592;2023-04-24T02:00:21;4.72;;;3.05;;
74650;SDS011;63169;46.042;14.592;2023-04-24T02:02:47;6.32;;;5.15;;
74650;SDS011;63169;46.042;14.592;2023-04-24T02:05:12;6.88;;;5.05;;
74650;SDS011;63169;46.042;14.592;2023-04-24T02:07:37;7.70;;;4.25;;
74650;SDS011;63169;46.042;14.592;2023-04-24T02:10:03;7.13;;;3.50;;
74650;SDS011;63169;46.042;14.592;2023-04-24T02:12:29;6.75;;;6.00;;
74650;SDS011;63169;46.042;14.592;2023-04-24T02:14:54;7.70;;;3.65;;
74650;SDS011;63169;46.042;14.592;2023-04-24T02:17:20;6.72;;;6.10;;
74650;SDS011;63169;46.042;14.592;2023-04-24T02:19:45;6.90;;;6.18;;
74650;SDS011;63169;46.042;14.592;2023-04-24T02:22:11;9.57;;;5.97;;
74650;SDS011;63169;46.042;14.592;2023-04-24T02:24:40;7.22;;;6.18;;
74650;SDS011;63169;46.042;14.592;2023-04-24T02:27:05;6.53;;;5.75;;
74650;SDS011;63169;46.042;14.592;2023-04-24T02:29:31;7.47;;;3.42;;
74650;SDS011;63169;46.042;14.592;2023-04-24T02:31:56;6.97;;;6.38;;
74650;SDS011;63169;46.042;14.592;2023-04-24T02:34:22;5.75;;;3.03;;
74650;SDS011;63169;46.042;14.592;2023-04-24T02:36:48;7.53;;;6.82;;
74650;SDS011;63169;46.042;14.592;2023-04-24T02:39:13;7.57;;;4.80;;
74650;SDS011;63169;46.042;14.592;2023-04-24T02:41:41;7.13;;;6.43;;
74650;SDS011;63169;46.042;14.592;2023-04-24T02:44:07;7.63;;;6.00;;
74650;SDS011;63169;46.042;14.592;2023-04-24T02:46:32;7.15;;;4.43;;
74650;SDS011;63169;46.042;14.592;2023-04-24T02:48:57;6.82;;;5.88;;
74650;SDS011;63169;46.042;14.592;2023-04-24T02:51:23;7.47;;;6.18;;
74650;SDS011;63169;46.042;14.592;2023-04-24T02:53:48;7.05;;;5.70;;
74650;SDS011;63169;46.042;14.592;2023-04-24T02:56:13;7.47;;;5.50;;
74650;SDS011;63169;46.042;14.592;2023-04-24T02:58:39;8.48;;;5.13;;
74650;SDS011;63169;46.042;14.592;2023-04-24T03:01:04;6.40;;;5.70;;
74650;SDS011;63169;46.042;14.592;2023-04-24T03:03:30;7.18;;;2.92;;
74650;SDS011;63169;46.042;14.592;2023-04-24T03:05:55;7.03;;;4.07;;
74650;SDS011;63169;46.042;14.592;2023-04-24T03:08:22;8.65;;;5.85;;
74650;SDS011;63169;46.042;14.592;2023-04-24T03:10:47;5.90;;;5.28;;
74650;SDS011;63169;46.042;14.592;2023-04-24T03:13:13;7.40;;;6.28;;
74650;SDS011;63169;46.042;14.592;2023-04-24T03:15:38;5.97;;;5.18;;
74650;SDS011;63169;46.042;14.592;2023-04-24T03:18:03;8.65;;;6.18;;
74650;SDS011;63169;46.042;14.592;2023-04-24T03:20:29;7.35;;;5.20;;
74650;SDS011;63169;46.042;14.592;2023-04-24T03:22:54;7.05;;;5.35;;
74650;SDS011;63169;46.042;14.592;2023-04-24T03:25:21;8.02;;;5.68;;
74650;SDS011;63169;46.042;14.592;2023-04-24T03:27:46;8.25;;;5.85;;
74650;SDS011;63169;46.042;14.592;2023-04-24T03:30:12;6.22;;;3.03;;
74650;SDS011;63169;46.042;14.592;2023-04-24T03:32:37;9.88;;;5.80;;
74650;SDS011;63169;46.042;14.592;2023-04-24T03:35:04;6.78;;;5.90;;
74650;SDS011;63169;46.042;14.592;2023-04-24T03:37:31;6.93;;;6.32;;
74650;SDS011;63169;46.042;14.592;2023-04-24T03:39:56;6.45;;;3.35;;
74650;SDS011;63169;46.042;14.592;2023-04-24T03:42:22;7.07;;;5.53;;
74650;SDS011;63169;46.042;14.592;2023-04-24T03:44:47;7.25;;;6.25;;
74650;SDS011;63169;46.042;14.592;2023-04-24T03:47:13;7.07;;;5.65;;
74650;SDS011;63169;46.042;14.592;2023-04-24T03:49:38;7.72;;;5.63;;
74650;SDS011;63169;46.042;14.592;2023-04-24T03:52:04;6.63;;;5.97;;
74650;SDS011;63169;46.042;14.592;2023-04-24T03:54:29;7.32;;;5.07;;
74650;SDS011;63169;46.042;14.592;2023-04-24T03:56:54;7.88;;;7.13;;
74650;SDS011;63169;46.042;14.592;2023-04-24T03:59:20;9.60;;;6.07;;
74650;SDS011;63169;46.042;14.592;2023-04-24T04:01:45;8.30;;;7.03;;
74650;SDS011;63169;46.042;14.592;2023-04-24T04:04:11;5.60;;;4.88;;
74650;SDS011;63169;46.042;14.592;2023-04-24T04:06:36;7.82;;;6.15;;
74650;SDS011;63169;46.042;14.592;2023-04-24T04:09:02;9.77;;;6.10;;
74650;SDS011;63169;46.042;14.592;2023-04-24T04:11:28;6.32;;;5.72;;
74650;SDS011;63169;46.042;14.592;2023-04-24T04:13:53;7.18;;;6.20;;
74650;SDS011;63169;46.042;14.592;2023-04-24T04:16:19;7.68;;;6.22;;
74650;SDS011;63169;46.042;14.592;2023-04-24T04:18:45;7.45;;;5.35;;
74650;SDS011;63169;46.042;14.592;2023-04-24T04:21:11;7.53;;;6.07;;
74650;SDS011;63169;46.042;14.592;2023-04-24T04:23:36;6.03;;;3.00;;
74650;SDS011;63169;46.042;14.592;2023-04-24T04:26:02;7.60;;;6.65;;
74650;SDS011;63169;46.042;14.592;2023-04-24T04:28:28;9.85;;;6.10;;
74650;SDS011;63169;46.042;14.592;2023-04-24T04:30:55;7.78;;;6.60;;
74650;SDS011;63169;46.042;14.592;2023-04-24T04:33:22;8.23;;;6.53;;
74650;SDS011;63169;46.042;14.592;2023-04-24T04:35:48;6.80;;;5.95;;
74650;SDS011;63169;46.042;14.592;2023-04-24T04:38:14;6.88;;;6.03;;
74650;SDS011;63169;46.042;14.592;2023-04-24T04:40:41;8.82;;;6.43;;
74650;SDS011;63169;46.042;14.592;2023-04-24T04:43:07;6.78;;;5.45;;
74650;SDS011;63169;46.042;14.592;2023-04-24T04:45:33;6.75;;;6.10;;
74650;SDS011;63169;46.042;14.592;2023-04-24T04:47:59;7.15;;;5.93;;
74650;SDS011;63169;46.042;14.592;2023-04-24T04:50:26;7.45;;;6.53;;
74650;SDS011;63169;46.042;14.592;2023-04-24T04:52:51;8.88;;;5.65;;
74650;SDS011;63169;46.042;14.592;2023-04-24T04:55:17;8.20;;;6.38;;
74650;SDS011;63169;46.042;14.592;2023-04-24T04:57:44;9.38;;;6.03;;
74650;SDS011;63169;46.042;14.592;2023-04-24T05:00:10;8.93;;;7.35;;
74650;SDS011;63169;46.042;14.592;2023-04-24T05:02:36;7.75;;;6.25;;
74650;SDS011;63169;46.042;14.592;2023-04-24T05:05:02;10.13;;;6.25;;
74650;SDS011;63169;46.042;14.592;2023-04-24T05:07:28;10.27;;;7.25;;
74650;SDS011;63169;46.042;14.592;2023-04-24T05:09:53;10.43;;;7.10;;
74650;SDS011;63169;46.042;14.592;2023-04-24T05:12:18;9.07;;;6.72;;
74650;SDS011;63169;46.042;14.592;2023-04-24T05:14:44;8.13;;;6.78;;
74650;SDS011;63169;46.042;14.592;2023-04-24T05:17:09;9.93;;;4.05;;
74650;SDS011;63169;46.042;14.592;2023-04-24T05:19:34;10.88;;;4.03;;
74650;SDS011;63169;46.042;14.592;2023-04-24T05:22:02;11.45;;;8.63;;
74650;SDS011;63169;46.042;14.592;2023-04-24T05:24:29;11.68;;;7.30;;
74650;SDS011;63169;46.042;14.592;2023-04-24T05:26:54;8.52;;;6.68;;
74650;SDS011;63169;46.042;14.592;2023-04-24T05:29:20;12.10;;;7.00;;
74650;SDS011;63169;46.042;14.592;2023-04-24T05:31:46;7.85;;;6.13;;
74650;SDS011;63169;46.042;14.592;2023-04-24T05:34:11;12.93;;;8.45;;
74650;SDS011;63169;46.042;14.592;2023-04-24T05:36:37;12.32;;;7.38;;
74650;SDS011;63169;46.042;14.592;2023-04-24T05:39:02;9.00;;;5.82;;
74650;SDS011;63169;46.042;14.592;2023-04-24T05:41:30;8.82;;;5.50;;
74650;SDS011;63169;46.042;14.592;2023-04-24T05:43:55;10.73;;;6.32;;
74650;SDS011;63169;46.042;14.592;2023-04-24T05:46:20;7.93;;;6.22;;
74650;SDS011;63169;46.042;14.592;2023-04-24T05:48:46;10.02;;;6.82;;
74650;SDS011;63169;46.042;14.592;2023-04-24T05:51:12;9.80;;;8.30;;
74650;SDS011;63169;46.042;14.592;2023-04-24T05:53:37;8.25;;;6.20;;
74650;SDS011;63169;46.042;14.592;2023-04-24T05:56:02;8.75;;;6.68;;
74650;SDS011;63169;46.042;14.592;2023-04-24T05:58:28;10.00;;;4.65;;
74650;SDS011;63169;46.042;14.592;2023-04-24T06:00:53;8.15;;;7.25;;
74650;SDS011;63169;46.042;14.592;2023-04-24T06:05:45;11.35;;;6.10;;
74650;SDS011;63169;46.042;14.592;2023-04-24T06:08:11;10.35;;;7.18;;
74650;SDS011;63169;46.042;14.592;2023-04-24T06:10:36;11.65;;;7.18;;
74650;SDS011;63169;46.042;14.592;2023-04-24T06:13:01;11.88;;;6.72;;
74650;SDS011;63169;46.042;14.592;2023-04-24T06:15:28;9.98;;;6.90;;
74650;SDS011;63169;46.042;14.592;2023-04-24T06:17:55;13.32;;;7.20;;
74650;SDS011;63169;46.042;14.592;2023-04-24T06:20:20;10.63;;;7.35;;
74650;SDS011;63169;46.042;14.592;2023-04-24T06:22:46;12.20;;;7.25;;
74650;SDS011;63169;46.042;14.592;2023-04-24T06:25:11;16.08;;;6.25;;
74650;SDS011;63169;46.042;14.592;2023-04-24T06:27:37;8.68;;;6.45;;
74650;SDS011;63169;46.042;14.592;2023-04-24T06:30:02;9.50;;;7.25;;
74650;SDS011;63169;46.042;14.592;2023-04-24T06:32:28;11.50;;;9.07;;
74650;SDS011;63169;46.042;14.592;2023-04-24T06:34:53;10.48;;;8.05;;
74650;SDS011;63169;46.042;14.592;2023-04-24T06:37:19;10.93;;;7.57;;
74650;SDS011;63169;46.042;14.592;2023-04-24T06:39:45;12.98;;;8.80;;
74650;SDS011;63169;46.042;14.592;2023-04-24T06:42:11;18.83;;;10.40;;
74650;SDS011;63169;46.042;14.592;2023-04-24T06:44:36;17.65;;;11.05;;
74650;SDS011;63169;46.042;14.592;2023-04-24T06:47:06;19.77;;;11.15;;
74650;SDS011;63169;46.042;14.592;2023-04-24T06:49:33;25.63;;;13.02;;
74650;SDS011;63169;46.042;14.592;2023-04-24T06:51:59;22.80;;;16.08;;
74650;SDS011;63169;46.042;14.592;2023-04-24T06:54:24;21.10;;;13.50;;
74650;SDS011;63169;46.042;14.592;2023-04-24T06:56:49;19.35;;;15.38;;
74650;SDS011;63169;46.042;14.592;2023-04-24T07:01:41;13.37;;;9.33;;
74650;SDS011;63169;46.042;14.592;2023-04-24T07:04:06;10.88;;;8.90;;
74650;SDS011;63169;46.042;14.592;2023-04-24T07:06:32;13.32;;;8.38;;
74650;SDS011;63169;46.042;14.592;2023-04-24T07:08:57;10.10;;;8.23;;
74650;SDS011;63169;46.042;14.592;2023-04-24T07:11:23;8.93;;;6.78;;
74650;SDS011;63169;46.042;14.592;2023-04-24T07:13:48;11.50;;;8.57;;
74650;SDS011;63169;46.042;14.592;2023-04-24T07:16:14;12.10;;;9.02;;
74650;SDS011;63169;46.042;14.592;2023-04-24T07:18:39;13.95;;;10.48;;
74650;SDS011;63169;46.042;14.592;2023-04-24T07:21:05;11.55;;;8.02;;
74650;SDS011;63169;46.042;14.592;2023-04-24T07:23:31;13.25;;;8.18;;
74650;SDS011;63169;46.042;14.592;2023-04-24T07:25:56;10.30;;;6.90;;
74650;SDS011;63169;46.042;14.592;2023-04-24T07:28:22;15.20;;;9.15;;
74650;SDS011;63169;46.042;14.592;2023-04-24T07:30:47;18.40;;;13.35;;
74650;SDS011;63169;46.042;14.592;2023-04-24T07:33:13;12.45;;;8.63;;
74650;SDS011;63169;46.042;14.592;2023-04-24T07:35:38;12.07;;;9.20;;
74650;SDS011;63169;46.042;14.592;2023-04-24T07:38:04;14.13;;;9.38;;
74650;SDS011;63169;46.042;14.592;2023-04-24T07:40:29;12.63;;;8.63;;
74650;SDS011;63169;46.042;14.592;2023-04-24T07:42:55;12.63;;;8.65;;
74650;SDS011;63169;46.042;14.592;2023-04-24T07:45:20;13.60;;;8.13;;
74650;SDS011;63169;46.042;14.592;2023-04-24T07:47:46;12.63;;;7.68;;
74650;SDS011;63169;46.042;14.592;2023-04-24T07:50:11;12.32;;;9.00;;
74650;SDS011;63169;46.042;14.592;2023-04-24T07:55:03;18.50;;;9.57;;
74650;SDS011;63169;46.042;14.592;2023-04-24T07:57:29;18.23;;;11.15;;
74650;SDS011;63169;46.042;14.592;2023-04-24T07:59:54;21.05;;;12.68;;
74650;SDS011;63169;46.042;14.592;2023-04-24T08:02:20;19.33;;;12.40;;
74650;SDS011;63169;46.042;14.592;2023-04-24T08:07:12;12.13;;;8.20;;
74650;SDS011;63169;46.042;14.592;2023-04-24T08:09:38;10.90;;;7.88;;
74650;SDS011;63169;46.042;14.592;2023-04-24T08:12:03;9.98;;;7.45;;
74650;SDS011;63169;46.042;14.592;2023-04-24T08:14:28;10.77;;;8.55;;
74650;SDS011;63169;46.042;14.592;2023-04-24T08:16:54;11.25;;;7.45;;
74650;SDS011;63169;46.042;14.592;2023-04-24T08:19:25;10.68;;;8.27;;
74650;SDS011;63169;46.042;14.592;2023-04-24T08:21:50;11.70;;;7.97;;
74650;SDS011;63169;46.042;14.592;2023-04-24T08:24:15;11.43;;;5.72;;
74650;SDS011;63169;46.042;14.592;2023-04-24T08:26:41;10.98;;;7.60;;
74650;SDS011;63169;46.042;14.592;2023-04-24T08:29:06;12.32;;;8.13;;
74650;SDS011;63169;46.042;14.592;2023-04-24T08:31:32;9.57;;;4.88;;
74650;SDS011;63169;46.042;14.592;2023-04-24T08:33:57;11.10;;;7.88;;
74650;SDS011;63169;46.042;14.592;2023-04-24T08:36:23;13.10;;;8.32;;
74650;SDS011;63169;46.042;14.592;2023-04-24T08:38:48;9.98;;;7.97;;
74650;SDS011;63169;46.042;14.592;2023-04-24T08:41:14;13.15;;;8.20;;
74650;SDS011;63169;46.042;14.592;2023-04-24T08:43:40;9.35;;;6.07;;
74650;SDS011;63169;46.042;14.592;2023-04-24T08:46:06;11.52;;;7.72;;
74650;SDS011;63169;46.042;14.592;2023-04-24T08:48:32;13.70;;;9.13;;
74650;SDS011;63169;46.042;14.592;2023-04-24T08:50:58;11.48;;;8.35;;
74650;SDS011;63169;46.042;14.592;2023-04-24T08:53:24;12.38;;;7.47;;
74650;SDS011;63169;46.042;14.592;2023-04-24T08:55:50;13.57;;;12.00;;
74650;SDS011;63169;46.042;14.592;2023-04-24T08:58:17;15.20;;;11.05;;
74650;SDS011;63169;46.042;14.592;2023-04-24T09:00:43;9.98;;;6.28;;
74650;SDS011;63169;46.042;14.592;2023-04-24T09:03:12;10.05;;;7.47;;
74650;SDS011;63169;46.042;14.592;2023-04-24T09:05:42;12.15;;;8.65;;
74650;SDS011;63169;46.042;14.592;2023-04-24T09:08:10;11.43;;;7.82;;
74650;SDS011;63169;46.042;14.592;2023-04-24T09:10:38;10.60;;;8.82;;
74650;SDS011;63169;46.042;14.592;2023-04-24T09:13:04;10.85;;;7.75;;
74650;SDS011;63169;46.042;14.592;2023-04-24T09:15:30;10.60;;;8.25;;
74650;SDS011;63169;46.042;14.592;2023-04-24T09:17:56;12.82;;;8.52;;
74650;SDS011;63169;46.042;14.592;2023-04-24T09:20:22;10.82;;;5.72;;
74650;SDS011;63169;46.042;14.592;2023-04-24T09:22:53;11.88;;;8.43;;
74650;SDS011;63169;46.042;14.592;2023-04-24T09:25:20;11.07;;;7.40;;
74650;SDS011;63169;46.042;14.592;2023-04-24T09:27:45;9.95;;;7.70;;
74650;SDS011;63169;46.042;14.592;2023-04-24T09:30:11;7.88;;;5.28;;
74650;SDS011;63169;46.042;14.592;2023-04-24T09:32:37;11.63;;;8.77;;
74650;SDS011;63169;46.042;14.592;2023-04-24T09:35:06;10.65;;;7.70;;
74650;SDS011;63169;46.042;14.592;2023-04-24T09:37:46;7.75;;;6.13;;
74650;SDS011;63169;46.042;14.592;2023-04-24T09:40:17;10.88;;;8.30;;
74650;SDS011;63169;46.042;14.592;2023-04-24T09:42:53;11.32;;;8.18;;
74650;SDS011;63169;46.042;14.592;2023-04-24T09:45:27;11.43;;;9.10;;
74650;SDS011;63169;46.042;14.592;2023-04-24T09:48:02;11.27;;;8.15;;
74650;SDS011;63169;46.042;14.592;2023-04-24T09:50:29;10.65;;;7.65;;
74650;SDS011;63169;46.042;14.592;2023-04-24T09:53:06;10.43;;;8.10;;
74650;SDS011;63169;46.042;14.592;2023-04-24T09:55:38;9.73;;;5.28;;
74650;SDS011;63169;46.042;14.592;2023-04-24T09:58:05;12.60;;;8.07;;
74650;SDS011;63169;46.042;14.592;2023-04-24T10:00:33;11.38;;;8.93;;
74650;SDS011;63169;46.042;14.592;2023-04-24T10:05:37;10.57;;;9.45;;
74650;SDS011;63169;46.042;14.592;2023-04-24T10:08:07;11.38;;;7.97;;
74650;SDS011;63169;46.042;14.592;2023-04-24T10:10:44;9.40;;;7.47;;
74650;SDS011;63169;46.042;14.592;2023-04-24T10:13:11;10.77;;;8.23;;
74650;SDS011;63169;46.042;14.592;2023-04-24T10:15:37;11.35;;;7.82;;
74650;SDS011;63169;46.042;14.592;2023-04-24T10:18:04;9.68;;;6.60;;
74650;SDS011;63169;46.042;14.592;2023-04-24T10:20:31;11.68;;;9.13;;
74650;SDS011;63169;46.042;14.592;2023-04-24T10:22:57;15.63;;;10.63;;
74650;SDS011;63169;46.042;14.592;2023-04-24T10:25:24;12.13;;;9.43;;
74650;SDS011;63169;46.042;14.592;2023-04-24T10:27:55;19.17;;;11.57;;
74650;SDS011;63169;46.042;14.592;2023-04-24T10:30:25;15.02;;;9.95;;
74650;SDS011;63169;46.042;14.592;2023-04-24T10:32:54;11.75;;;8.15;;
74650;SDS011;63169;46.042;14.592;2023-04-24T10:35:19;11.32;;;10.02;;
74650;SDS011;63169;46.042;14.592;2023-04-24T10:38:03;14.05;;;9.55;;
74650;SDS011;63169;46.042;14.592;2023-04-24T10:40:32;11.32;;;9.18;;
74650;SDS011;63169;46.042;14.592;2023-04-24T10:42:58;13.30;;;9.35;;
74650;SDS011;63169;46.042;14.592;2023-04-24T10:45:24;12.32;;;8.90;;
74650;SDS011;63169;46.042;14.592;2023-04-24T10:50:21;10.85;;;9.75;;
74650;SDS011;63169;46.042;14.592;2023-04-24T10:52:47;10.20;;;5.35;;
74650;SDS011;63169;46.042;14.592;2023-04-24T10:55:15;10.63;;;7.72;;
74650;SDS011;63169;46.042;14.592;2023-04-24T10:58:00;13.45;;;9.27;;
74650;SDS011;63169;46.042;14.592;2023-04-24T11:00:29;12.40;;;6.00;;
74650;SDS011;63169;46.042;14.592;2023-04-24T11:02:55;10.70;;;7.90;;
74650;SDS011;63169;46.042;14.592;2023-04-24T11:05:22;12.57;;;11.27;;
74650;SDS011;63169;46.042;14.592;2023-04-24T11:10:39;8.55;;;7.10;;
74650;SDS011;63169;46.042;14.592;2023-04-24T11:13:05;11.00;;;6.95;;
74650;SDS011;63169;46.042;14.592;2023-04-24T11:15:30;7.47;;;6.57;;
74650;SDS011;63169;46.042;14.592;2023-04-24T11:17:55;8.27;;;6.40;;
74650;SDS011;63169;46.042;14.592;2023-04-24T11:20:22;9.25;;;7.20;;
74650;SDS011;63169;46.042;14.592;2023-04-24T11:22:48;10.85;;;7.38;;
74650;SDS011;63169;46.042;14.592;2023-04-24T11:25:17;10.82;;;9.63;;
74650;SDS011;63169;46.042;14.592;2023-04-24T11:27:43;9.55;;;7.28;;
74650;SDS011;63169;46.042;14.592;2023-04-24T11:30:11;9.75;;;7.82;;
74650;SDS011;63169;46.042;14.592;2023-04-24T11:32:37;11.82;;;10.63;;
74650;SDS011;63169;46.042;14.592;2023-04-24T11:37:53;10.90;;;8.57;;
74650;SDS011;63169;46.042;14.592;2023-04-24T11:40:19;9.93;;;5.93;;
74650;SDS011;63169;46.042;14.592;2023-04-24T11:42:49;9.93;;;8.25;;
74650;SDS011;63169;46.042;14.592;2023-04-24T11:45:20;11.00;;;8.75;;
74650;SDS011;63169;46.042;14.592;2023-04-24T11:47:47;9.57;;;5.35;;
74650;SDS011;63169;46.042;14.592;2023-04-24T11:50:13;12.73;;;9.60;;
74650;SDS011;63169;46.042;14.592;2023-04-24T11:52:40;9.32;;;4.90;;
74650;SDS011;63169;46.042;14.592;2023-04-24T11:55:07;11.98;;;7.78;;
74650;SDS011;63169;46.042;14.592;2023-04-24T11:57:38;8.63;;;7.13;;
74650;SDS011;63169;46.042;14.592;2023-04-24T12:00:04;11.68;;;6.15;;
74650;SDS011;63169;46.042;14.592;2023-04-24T12:02:30;8.77;;;7.78;;
74650;SDS011;63169;46.042;14.592;2023-04-24T12:04:56;9.65;;;8.15;;
74650;SDS011;63169;46.042;14.592;2023-04-24T12:07:22;14.77;;;9.18;;
74650;SDS011;63169;46.042;14.592;2023-04-24T12:10:00;9.30;;;7.03;;
74650;SDS011;63169;46.042;14.592;2023-04-24T12:12:26;8.65;;;5.93;;
74650;SDS011;63169;46.042;14.592;2023-04-24T12:17:23;7.28;;;6.57;;
74650;SDS011;63169;46.042;14.592;2023-04-24T12:19:50;5.90;;;5.30;;
74650;SDS011;63169;46.042;14.592;2023-04-24T12:22:16;8.00;;;5.03;;
74650;SDS011;63169;46.042;14.592;2023-04-24T12:25:01;5.28;;;3.05;;
74650;SDS011;63169;46.042;14.592;2023-04-24T12:27:31;7.57;;;6.72;;
74650;SDS011;63169;46.042;14.592;2023-04-24T12:29:58;6.68;;;3.63;;
74650;SDS011;63169;46.042;14.592;2023-04-24T12:34:50;7.18;;;3.78;;
74650;SDS011;63169;46.042;14.592;2023-04-24T12:39:58;9.25;;;6.18;;
74650;SDS011;63169;46.042;14.592;2023-04-24T12:42:33;8.60;;;7.05;;
74650;SDS011;63169;46.042;14.592;2023-04-24T12:47:27;10.93;;;8.15;;
74650;SDS011;63169;46.042;14.592;2023-04-24T12:49:53;9.32;;;7.50;;
74650;SDS011;63169;46.042;14.592;2023-04-24T12:52:20;8.82;;;7.38;;
74650;SDS011;63169;46.042;14.592;2023-04-24T12:54:49;9.70;;;7.38;;
74650;SDS011;63169;46.042;14.592;2023-04-24T12:57:16;9.80;;;6.50;;
74650;SDS011;63169;46.042;14.592;2023-04-24T12:59:42;10.18;;;6.53;;
74650;SDS011;63169;46.042;14.592;2023-04-24T13:02:08;11.70;;;9.02;;
74650;SDS011;63169;46.042;14.592;2023-04-24T13:04:35;10.35;;;7.55;;
74650;SDS011;63169;46.042;14.592;2023-04-24T13:07:00;11.13;;;8.68;;
74650;SDS011;63169;46.042;14.592;2023-04-24T13:09:26;9.88;;;5.10;;
74650;SDS011;63169;46.042;14.592;2023-04-24T13:11:51;12.40;;;9.20;;
74650;SDS011;63169;46.042;14.592;2023-04-24T13:14:16;11.00;;;8.02;;
74650;SDS011;63169;46.042;14.592;2023-04-24T13:16:42;9.52;;;8.48;;
74650;SDS011;63169;46.042;14.592;2023-04-24T13:19:07;11.23;;;5.38;;
74650;SDS011;63169;46.042;14.592;2023-04-24T13:21:32;7.05;;;4.78;;
74650;SDS011;63169;46.042;14.592;2023-04-24T13:23:58;11.07;;;8.70;;
74650;SDS011;63169;46.042;14.592;2023-04-24T13:26:23;10.27;;;9.00;;
74650;SDS011;63169;46.042;14.592;2023-04-24T13:28:49;10.60;;;7.60;;
74650;SDS011;63169;46.042;14.592;2023-04-24T13:31:14;12.80;;;9.07;;
74650;SDS011;63169;46.042;14.592;2023-04-24T13:33:40;11.32;;;9.25;;
74650;SDS011;63169;46.042;14.592;2023-04-24T13:36:05;12.15;;;10.55;;
74650;SDS011;63169;46.042;14.592;2023-04-24T13:38:31;11.52;;;9.30;;
74650;SDS011;63169;46.042;14.592;2023-04-24T13:40:56;10.50;;;7.95;;
74650;SDS011;63169;46.042;14.592;2023-04-24T13:43:22;11.52;;;9.70;;
74650;SDS011;63169;46.042;14.592;2023-04-24T13:45:47;11.43;;;9.45;;
74650;SDS011;63169;46.042;14.592;2023-04-24T13:48:12;12.32;;;9.07;;
74650;SDS011;63169;46.042;14.592;2023-04-24T13:50:40;15.18;;;7.72;;
74650;SDS011;63169;46.042;14.592;2023-04-24T13:53:06;10.63;;;8.10;;
74650;SDS011;63169;46.042;14.592;2023-04-24T13:55:31;8.88;;;7.88;;
74650;SDS011;63169;46.042;14.592;2023-04-24T13:57:57;8.85;;;6.95;;
74650;SDS011;63169;46.042;14.592;2023-04-24T14:00:22;7.47;;;3.63;;
74650;SDS011;63169;46.042;14.592;2023-04-24T14:02:48;8.45;;;5.13;;
74650;SDS011;63169;46.042;14.592;2023-04-24T14:05:13;5.95;;;4.20;;
74650;SDS011;63169;46.042;14.592;2023-04-24T14:07:40;6.95;;;6.35;;
74650;SDS011;63169;46.042;14.592;2023-04-24T14:10:06;6.78;;;4.50;;
74650;SDS011;63169;46.042;14.592;2023-04-24T14:12:31;6.10;;;5.05;;
74650;SDS011;63169;46.042;14.592;2023-04-24T14:14:57;5.72;;;2.55;;
74650;SDS011;63169;46.042;14.592;2023-04-24T14:17:22;6.80;;;3.00;;
74650;SDS011;63169;46.042;14.592;2023-04-24T14:19:48;5.60;;;4.40;;
74650;SDS011;63169;46.042;14.592;2023-04-24T14:22:13;6.38;;;2.97;;
74650;SDS011;63169;46.042;14.592;2023-04-24T14:24:38;6.28;;;4.70;;
74650;SDS011;63169;46.042;14.592;2023-04-24T14:27:04;7.88;;;4.82;;
74650;SDS011;63169;46.042;14.592;2023-04-24T14:29:29;6.47;;;4.70;;
74650;SDS011;63169;46.042;14.592;2023-04-24T14:31:55;7.88;;;4.65;;
74650;SDS011;63169;46.042;14.592;2023-04-24T14:34:20;6.63;;;6.03;;
74650;SDS011;63169;46.042;14.592;2023-04-24T14:36:45;6.45;;;5.57;;
74650;SDS011;63169;46.042;14.592;2023-04-24T14:39:11;5.13;;;2.53;;
74650;SDS011;63169;46.042;14.592;2023-04-24T14:41:36;6.88;;;5.07;;
74650;SDS011;63169;46.042;14.592;2023-04-24T14:44:04;8.63;;;5.53;;
74650;SDS011;63169;46.042;14.592;2023-04-24T14:46:29;7.65;;;6.07;;
74650;SDS011;63169;46.042;14.592;2023-04-24T14:48:55;10.02;;;7.13;;
74650;SDS011;63169;46.042;14.592;2023-04-24T14:51:21;12.38;;;10.35;;
74650;SDS011;63169;46.042;14.592;2023-04-24T14:53:47;7.82;;;5.15;;
74650;SDS011;63169;46.042;14.592;2023-04-24T14:56:12;10.38;;;7.28;;